createdAt,value
2023-04-29T00:00:22.118Z,13.20
2023-04-29T00:02:50.451Z,13.10
2023-04-29T00:05:19.125Z,13.10
2023-04-29T00:07:47.646Z,13.20
2023-04-29T00:10:17.330Z,13.20
2023-04-29T00:12:45.498Z,13.20
2023-04-29T00:15:14.202Z,13.20
2023-04-29T00:17:42.384Z,13.10
2023-04-29T00:20:12.003Z,13.10
2023-04-29T00:22:40.210Z,13.10
2023-04-29T00:25:09.987Z,13.10
2023-04-29T00:27:39.553Z,13.10
2023-04-29T00:30:09.380Z,13.10
2023-04-29T00:32:37.709Z,13.10
2023-04-29T00:35:06.534Z,13.10
2023-04-29T00:37:35.152Z,13.10
2023-04-29T00:40:05.137Z,13.20
2023-04-29T00:42:34.240Z,13.30
2023-04-29T00:45:03.824Z,13.30
2023-04-29T00:47:32.036Z,13.30
2023-04-29T00:50:00.533Z,13.30
2023-04-29T00:52:32.163Z,13.30
2023-04-29T00:55:00.996Z,13.30
2023-04-29T00:57:30.203Z,13.30
2023-04-29T00:59:59.492Z,13.30
2023-04-29T01:02:29.675Z,13.20
2023-04-29T01:04:58.284Z,13.30
2023-04-29T01:07:32.735Z,13.30
2023-04-29T01:10:05.834Z,13.30
2023-04-29T01:12:42.967Z,13.20
2023-04-29T01:15:18.633Z,13.20
2023-04-29T01:17:53.031Z,13.20
2023-04-29T01:20:23.606Z,13.20
2023-04-29T01:22:52.008Z,13.20
2023-04-29T01:25:21.677Z,13.20
2023-04-29T01:27:58.953Z,13.20
2023-04-29T01:30:35.783Z,13.20
2023-04-29T01:33:12.659Z,13.20
2023-04-29T01:35:51.476Z,13.30
2023-04-29T01:38:29.637Z,13.30
2023-04-29T01:41:09.945Z,13.30
2023-04-29T01:43:39.940Z,13.30
2023-04-29T01:46:11.121Z,13.30
2023-04-29T01:48:39.555Z,13.30
2023-04-29T01:51:07.870Z,13.30
2023-04-29T01:53:36.111Z,13.40
2023-04-29T01:56:06.262Z,13.30
2023-04-29T01:58:34.425Z,13.20
2023-04-29T02:01:02.696Z,13.10
2023-04-29T02:03:30.985Z,13.10
2023-04-29T02:05:59.317Z,13.10
2023-04-29T02:08:27.575Z,13.10
2023-04-29T02:10:56.257Z,13.10
2023-04-29T02:13:25.889Z,13.10
2023-04-29T02:15:54.141Z,13.10
2023-04-29T02:18:22.653Z,13.10
2023-04-29T02:20:51.945Z,13.10
2023-04-29T02:23:20.087Z,13.10
2023-04-29T02:25:49.367Z,13.10
2023-04-29T02:28:17.902Z,13.10
2023-04-29T02:30:47.700Z,13.20
2023-04-29T02:33:16.214Z,13.20
2023-04-29T02:35:44.354Z,13.20
2023-04-29T02:38:13.113Z,13.20
2023-04-29T02:40:44.119Z,13.30
2023-04-29T02:43:12.559Z,13.30
2023-04-29T02:45:41.223Z,13.30
2023-04-29T02:48:10.857Z,13.30
2023-04-29T02:50:39.670Z,13.30
2023-04-29T02:53:07.898Z,13.30
2023-04-29T02:55:36.038Z,13.40
2023-04-29T02:58:04.807Z,13.40
2023-04-29T03:00:32.975Z,13.40
2023-04-29T03:03:01.886Z,13.40
2023-04-29T03:05:32.020Z,13.40
2023-04-29T03:08:00.191Z,13.40
2023-04-29T03:10:28.412Z,13.50
2023-04-29T03:12:56.642Z,13.40
2023-04-29T03:15:24.811Z,13.50
2023-04-29T03:17:53.052Z,13.40
2023-04-29T03:20:21.548Z,13.40
2023-04-29T03:22:51.064Z,13.40
2023-04-29T03:25:19.329Z,13.40
2023-04-29T03:27:47.458Z,13.40
2023-04-29T03:30:15.755Z,13.30
2023-04-29T03:32:43.940Z,13.20
2023-04-29T03:35:15.623Z,13.20
2023-04-29T03:37:45.081Z,13.20
2023-04-29T03:40:15.353Z,13.20
2023-04-29T03:42:43.592Z,13.20
2023-04-29T03:45:13.222Z,13.20
2023-04-29T03:47:41.562Z,13.20
2023-04-29T03:50:10.330Z,13.10
2023-04-29T03:52:38.784Z,13.10
2023-04-29T03:55:07.557Z,13.10
2023-04-29T03:57:37.105Z,13.10
2023-04-29T04:00:05.899Z,13.10
2023-04-29T04:02:35.405Z,13.00
2023-04-29T04:05:03.814Z,13.10
2023-04-29T04:07:32.000Z,13.10
2023-04-29T04:10:00.250Z,13.10
2023-04-29T04:12:28.441Z,13.10
2023-04-29T04:14:59.221Z,13.10
2023-04-29T04:17:27.670Z,13.10
2023-04-29T04:19:55.960Z,13.00
2023-04-29T04:22:24.124Z,13.10
2023-04-29T04:24:52.279Z,13.00
2023-04-29T04:27:20.459Z,13.00
2023-04-29T04:29:48.588Z,13.00
2023-04-29T04:32:18.186Z,13.00
2023-04-29T04:34:46.322Z,13.00
2023-04-29T04:37:14.436Z,13.00
2023-04-29T04:39:42.614Z,13.10
2023-04-29T04:42:10.796Z,13.10
2023-04-29T04:44:38.982Z,13.10
2023-04-29T04:47:07.392Z,13.10
2023-04-29T04:49:36.915Z,13.20
2023-04-29T04:52:05.417Z,13.20
2023-04-29T04:54:33.676Z,13.20
2023-04-29T04:57:05.308Z,13.20
2023-04-29T04:59:33.780Z,13.10
2023-04-29T05:02:01.985Z,13.20
2023-04-29T05:04:30.313Z,13.20
2023-04-29T05:06:59.924Z,13.30
2023-04-29T05:09:28.078Z,13.20
2023-04-29T05:11:56.426Z,13.20
2023-04-29T05:14:24.626Z,13.20
2023-04-29T05:16:53.057Z,13.30
2023-04-29T05:19:21.300Z,13.30
2023-04-29T05:21:49.470Z,13.40
2023-04-29T05:24:19.028Z,13.30
2023-04-29T05:26:47.255Z,13.40
2023-04-29T05:29:15.705Z,13.30
2023-04-29T05:31:44.008Z,13.30
2023-04-29T05:34:12.270Z,13.30
2023-04-29T05:36:40.479Z,13.30
2023-04-29T05:39:08.809Z,13.40
2023-04-29T05:41:38.355Z,13.50
2023-04-29T05:44:06.801Z,13.50
2023-04-29T05:46:35.004Z,13.50
2023-04-29T05:49:03.338Z,13.60
2023-04-29T05:51:31.815Z,13.80
2023-04-29T05:54:00.528Z,14.00
2023-04-29T05:56:28.784Z,14.10
2023-04-29T05:58:58.344Z,14.30
2023-04-29T06:01:26.515Z,14.50
2023-04-29T06:03:54.863Z,14.60
2023-04-29T06:06:23.421Z,14.70
2023-04-29T06:08:51.838Z,14.80
2023-04-29T06:11:20.289Z,15.30
2023-04-29T06:13:48.485Z,15.70
2023-04-29T06:16:18.177Z,16.20
2023-04-29T06:18:46.352Z,16.60
2023-04-29T06:21:15.085Z,16.50
2023-04-29T06:23:43.223Z,16.30
2023-04-29T06:26:11.497Z,16.10
2023-04-29T06:28:39.652Z,16.10
2023-04-29T06:31:08.375Z,16.10
2023-04-29T06:33:38.020Z,16.20
2023-04-29T06:36:06.895Z,16.10
2023-04-29T06:38:35.094Z,16.20
2023-04-29T06:41:04.368Z,16.30
2023-04-29T06:43:32.550Z,16.10
2023-04-29T06:46:00.781Z,16.10
2023-04-29T06:48:29.017Z,16.00
2023-04-29T06:51:00.024Z,16.10
2023-04-29T06:53:28.445Z,16.40
2023-04-29T06:55:56.625Z,17.00
2023-04-29T06:58:24.774Z,17.40
2023-04-29T07:00:53.212Z,17.50
2023-04-29T07:03:21.489Z,18.10
2023-04-29T07:05:50.014Z,18.40
2023-04-29T07:08:19.528Z,18.30
2023-04-29T07:10:55.963Z,18.40
2023-04-29T07:13:24.206Z,18.50
2023-04-29T07:15:52.543Z,18.20
2023-04-29T07:18:20.803Z,17.50
2023-04-29T07:20:51.124Z,17.50
2023-04-29T07:23:20.682Z,17.70
2023-04-29T07:25:48.864Z,18.20
2023-04-29T07:28:17.296Z,19.40
2023-04-29T07:30:45.535Z,20.80
2023-04-29T07:33:13.748Z,21.50
2023-04-29T07:35:44.642Z,21.80
2023-04-29T07:38:13.016Z,22.10
2023-04-29T07:40:43.541Z,22.50
2023-04-29T07:43:11.672Z,22.10
2023-04-29T07:45:40.070Z,22.40
2023-04-29T07:48:08.295Z,23.20
2023-04-29T07:50:37.361Z,23.40
2023-04-29T07:53:06.499Z,24.00
2023-04-29T07:55:34.667Z,24.50
2023-04-29T07:58:04.227Z,25.00
2023-04-29T08:00:32.635Z,25.00
2023-04-29T08:03:00.955Z,25.20
2023-04-29T08:05:30.685Z,25.70
2023-04-29T08:07:59.105Z,26.80
2023-04-29T08:10:27.378Z,26.40
2023-04-29T08:12:56.177Z,26.30
2023-04-29T08:15:25.999Z,25.90
2023-04-29T08:17:54.359Z,26.20
2023-04-29T08:20:22.641Z,25.80
2023-04-29T08:22:50.793Z,26.00
2023-04-29T08:25:19.124Z,25.60
2023-04-29T08:27:47.395Z,26.00
2023-04-29T08:30:15.719Z,26.70
2023-04-29T08:32:45.233Z,26.90
2023-04-29T08:35:13.884Z,27.60
2023-04-29T08:37:42.251Z,27.60
2023-04-29T08:40:11.254Z,26.90
2023-04-29T08:42:39.499Z,26.10
2023-04-29T08:45:08.468Z,26.20
2023-04-29T08:47:37.910Z,27.10
2023-04-29T08:50:09.179Z,27.50
2023-04-29T08:52:37.161Z,27.50
2023-04-29T08:55:05.928Z,27.80
2023-04-29T08:57:39.719Z,28.00
2023-04-29T09:00:11.317Z,28.70
2023-04-29T09:02:46.192Z,29.90
2023-04-29T09:05:16.037Z,30.60
2023-04-29T09:07:45.614Z,29.60
2023-04-29T09:10:14.983Z,29.80
2023-04-29T09:12:43.138Z,30.80
2023-04-29T09:15:11.925Z,31.70
2023-04-29T09:17:42.200Z,32.30
2023-04-29T09:20:31.339Z,32.40
2023-04-29T09:23:01.525Z,33.00
2023-04-29T09:25:29.858Z,33.30
2023-04-29T09:27:58.243Z,32.80
2023-04-29T09:30:26.964Z,32.00
2023-04-29T09:33:09.773Z,32.00
2023-04-29T09:35:42.208Z,32.60
2023-04-29T09:38:14.714Z,33.10
2023-04-29T09:40:58.287Z,33.50
2023-04-29T09:43:27.631Z,34.10
2023-04-29T09:45:55.915Z,34.90
2023-04-29T09:48:31.973Z,35.20
2023-04-29T09:51:04.799Z,35.20
2023-04-29T09:53:33.446Z,35.10
2023-04-29T09:56:02.802Z,35.60
2023-04-29T09:58:37.129Z,35.70
2023-04-29T10:01:06.322Z,35.90
2023-04-29T10:03:36.471Z,35.80
2023-04-29T10:06:07.771Z,35.70
2023-04-29T10:08:36.928Z,35.20
2023-04-29T10:11:06.230Z,35.40
2023-04-29T10:13:38.584Z,35.70
2023-04-29T10:16:16.929Z,36.10
2023-04-29T10:18:53.393Z,36.00
2023-04-29T10:21:28.551Z,36.00
2023-04-29T10:23:59.182Z,36.20
2023-04-29T10:26:29.680Z,36.30
2023-04-29T10:28:59.978Z,35.90
2023-04-29T10:31:28.943Z,36.00
2023-04-29T10:33:58.753Z,35.80
2023-04-29T10:36:30.709Z,35.90
2023-04-29T10:39:01.335Z,35.90
2023-04-29T10:41:31.208Z,36.20
2023-04-29T10:44:02.829Z,35.90
2023-04-29T10:46:32.362Z,36.00
2023-04-29T10:49:03.895Z,36.10
2023-04-29T10:51:35.014Z,35.60
2023-04-29T10:54:09.898Z,35.80
2023-04-29T10:56:46.433Z,35.70
2023-04-29T10:59:15.508Z,35.80
2023-04-29T11:01:48.769Z,35.90
2023-04-29T11:04:18.147Z,36.20
2023-04-29T11:06:49.690Z,35.90
2023-04-29T11:09:22.230Z,35.90
2023-04-29T11:11:59.226Z,36.20
2023-04-29T11:14:28.558Z,36.10
2023-04-29T11:16:59.337Z,36.20
2023-04-29T11:19:32.629Z,36.20
2023-04-29T11:22:25.524Z,35.50
2023-04-29T11:24:56.194Z,35.80
2023-04-29T11:27:26.506Z,35.70
2023-04-29T11:29:58.707Z,35.70
2023-04-29T11:32:28.077Z,36.00
2023-04-29T11:34:56.855Z,35.60
2023-04-29T11:37:27.936Z,35.80
2023-04-29T11:40:01.530Z,36.00
2023-04-29T11:42:29.747Z,36.20
2023-04-29T11:44:59.584Z,36.10
2023-04-29T11:47:29.803Z,36.00
2023-04-29T11:50:05.298Z,35.70
2023-04-29T11:52:36.460Z,34.90
2023-04-29T11:55:05.254Z,34.60
2023-04-29T11:57:33.770Z,33.50
2023-04-29T12:00:02.321Z,32.50
2023-04-29T12:02:34.408Z,32.80
2023-04-29T12:05:07.839Z,33.20
2023-04-29T12:07:37.687Z,33.60
2023-04-29T12:10:10.339Z,34.10
2023-04-29T12:12:40.890Z,34.30
2023-04-29T12:15:10.989Z,34.50
2023-04-29T12:17:39.748Z,34.60
2023-04-29T12:20:10.008Z,34.70
2023-04-29T12:22:39.664Z,34.40
2023-04-29T12:25:08.968Z,34.10
2023-04-29T12:27:37.424Z,33.90
2023-04-29T12:30:09.649Z,33.70
2023-04-29T12:32:38.319Z,33.50
2023-04-29T12:35:07.455Z,33.40
2023-04-29T12:37:35.844Z,33.20
2023-04-29T12:40:06.318Z,32.80
2023-04-29T12:42:35.014Z,32.70
2023-04-29T12:45:03.610Z,32.70
2023-04-29T12:47:34.925Z,33.10
2023-04-29T12:50:03.360Z,33.30
2023-04-29T12:52:31.592Z,33.20
2023-04-29T12:54:59.827Z,33.20
2023-04-29T12:57:31.132Z,33.30
2023-04-29T12:59:59.290Z,33.10
2023-04-29T13:02:28.573Z,33.20
2023-04-29T13:04:57.256Z,33.40
2023-04-29T13:07:25.764Z,33.00
2023-04-29T13:09:53.982Z,33.10
2023-04-29T13:12:22.108Z,32.80
2023-04-29T13:14:52.476Z,32.80
2023-04-29T13:17:21.346Z,33.10
2023-04-29T13:19:51.644Z,33.20
2023-04-29T13:22:21.762Z,33.70
2023-04-29T13:24:50.186Z,33.90
2023-04-29T13:27:18.343Z,34.00
2023-04-29T13:29:46.514Z,34.20
2023-04-29T13:32:18.008Z,34.70
2023-04-29T13:34:46.685Z,34.90
2023-04-29T13:37:14.908Z,35.00
2023-04-29T13:39:45.712Z,35.10
2023-04-29T13:42:16.003Z,35.10
2023-04-29T13:44:59.931Z,34.80
2023-04-29T13:47:31.411Z,34.80
2023-04-29T13:50:37.014Z,34.80
2023-04-29T13:53:17.990Z,35.00
2023-04-29T14:03:12.879Z,33.70
2023-04-29T14:05:42.488Z,32.70
2023-04-29T14:08:10.919Z,31.90
2023-04-29T14:10:39.192Z,31.00
2023-04-29T14:13:07.331Z,30.40
2023-04-29T14:15:35.663Z,30.10
2023-04-29T14:18:04.027Z,29.60
2023-04-29T14:20:33.602Z,29.00
2023-04-29T14:23:01.847Z,28.40
2023-04-29T14:25:31.559Z,28.30
2023-04-29T14:28:01.304Z,28.10
2023-04-29T14:30:29.537Z,28.00
2023-04-29T14:32:57.814Z,27.80
2023-04-29T14:35:26.129Z,27.50
2023-04-29T14:37:55.993Z,27.10
2023-04-29T14:40:24.333Z,26.40
2023-04-29T14:42:52.528Z,26.20
2023-04-29T14:45:20.781Z,25.80
2023-04-29T14:47:49.033Z,25.50
2023-04-29T14:50:17.826Z,25.20
2023-04-29T14:52:46.015Z,25.10
2023-04-29T14:55:15.695Z,24.80
2023-04-29T14:57:43.894Z,24.50
2023-04-29T15:00:13.301Z,24.40
2023-04-29T15:02:41.466Z,24.40
2023-04-29T15:05:10.155Z,24.40
2023-04-29T15:07:38.362Z,24.40
2023-04-29T15:10:09.478Z,24.40
2023-04-29T15:12:39.042Z,24.50
2023-04-29T15:15:08.654Z,24.50
2023-04-29T15:17:36.928Z,24.50
2023-04-29T15:20:05.854Z,24.40
2023-04-29T15:22:34.033Z,24.40
2023-04-29T15:25:02.208Z,24.40
2023-04-29T15:27:30.474Z,24.40
2023-04-29T15:29:59.989Z,24.40
2023-04-29T15:32:31.786Z,24.20
2023-04-29T15:34:59.980Z,24.20
2023-04-29T15:37:28.464Z,24.20
2023-04-29T15:39:57.079Z,24.20
2023-04-29T15:42:25.269Z,24.20
2023-04-29T15:44:53.458Z,24.00
2023-04-29T15:47:23.075Z,24.00
2023-04-29T15:49:52.523Z,23.80
2023-04-29T15:52:21.026Z,23.70
2023-04-29T15:54:49.211Z,23.60
2023-04-29T15:57:17.381Z,23.40
2023-04-29T15:59:45.671Z,23.40
2023-04-29T16:02:15.342Z,23.40
2023-04-29T16:04:44.933Z,23.30
2023-04-29T16:07:13.268Z,23.20
2023-04-29T16:09:41.550Z,23.10
2023-04-29T16:12:11.595Z,23.10
2023-04-29T16:14:39.882Z,23.00
2023-04-29T16:17:08.115Z,23.10
2023-04-29T16:19:37.356Z,23.00
2023-04-29T16:22:07.052Z,22.90
2023-04-29T16:24:35.512Z,22.90
2023-04-29T16:27:03.679Z,22.80
2023-04-29T16:29:31.919Z,22.70
2023-04-29T16:32:00.175Z,22.40
2023-04-29T16:34:28.401Z,22.60
2023-04-29T16:36:56.569Z,22.50
2023-04-29T16:39:26.151Z,22.40
2023-04-29T16:41:54.343Z,22.40
2023-04-29T16:44:22.559Z,22.30
2023-04-29T16:46:51.643Z,22.20
2023-04-29T16:49:26.610Z,22.10
2023-04-29T16:51:55.354Z,22.10
2023-04-29T16:54:24.998Z,22.00
2023-04-29T16:56:53.208Z,21.90
2023-04-29T16:59:22.167Z,21.80
2023-04-29T17:01:50.497Z,21.70
2023-04-29T17:04:18.717Z,21.70
2023-04-29T17:06:47.008Z,21.60
2023-04-29T17:09:15.838Z,21.50
2023-04-29T17:11:45.417Z,21.40
2023-04-29T17:14:13.571Z,21.30
2023-04-29T17:16:41.860Z,21.20
2023-04-29T17:19:10.261Z,21.10
2023-04-29T17:21:38.492Z,20.90
2023-04-29T17:24:07.113Z,20.70
2023-04-29T17:26:35.324Z,20.70
2023-04-29T17:29:05.154Z,20.50
2023-04-29T17:31:45.213Z,20.40
2023-04-29T17:34:19.724Z,20.30
2023-04-29T17:36:48.333Z,20.20
2023-04-29T17:39:16.634Z,20.10
2023-04-29T17:41:45.041Z,19.90
2023-04-29T17:44:14.671Z,19.80
2023-04-29T17:46:42.873Z,19.70
2023-04-29T17:49:11.561Z,19.60
2023-04-29T17:51:39.815Z,19.40
2023-04-29T17:54:09.105Z,19.30
2023-04-29T17:56:37.356Z,19.20
2023-04-29T17:59:06.349Z,19.20
2023-04-29T18:01:37.221Z,19.00
2023-04-29T18:04:06.100Z,19.00
2023-04-29T18:06:35.025Z,18.90
2023-04-29T18:09:03.316Z,18.80
2023-04-29T18:11:31.611Z,18.70
2023-04-29T18:13:59.885Z,18.60
2023-04-29T18:16:28.173Z,18.50
2023-04-29T18:18:57.764Z,18.30
2023-04-29T18:21:26.334Z,18.20
2023-04-29T18:23:54.784Z,18.00
2023-04-29T18:26:23.195Z,17.90
2023-04-29T18:28:51.408Z,17.80
2023-04-29T18:31:20.337Z,17.80
2023-04-29T18:33:48.564Z,17.70
2023-04-29T18:36:21.158Z,17.70
2023-04-29T18:38:49.427Z,17.60
2023-04-29T18:41:17.572Z,17.50
2023-04-29T18:43:45.751Z,17.50
2023-04-29T18:46:13.994Z,17.40
2023-04-29T18:48:42.311Z,17.40
2023-04-29T18:51:10.496Z,17.30
2023-04-29T18:53:40.056Z,17.40
2023-04-29T18:56:08.465Z,17.30
2023-04-29T18:58:36.753Z,17.30
2023-04-29T19:01:05.023Z,17.20
2023-04-29T19:03:33.217Z,17.10
2023-04-29T19:06:01.521Z,17.10
2023-04-29T19:08:29.718Z,17.00
2023-04-29T19:11:00.742Z,16.90
2023-04-29T19:13:29.493Z,16.90
2023-04-29T19:15:57.767Z,16.80
2023-04-29T19:18:26.087Z,16.70
2023-04-29T19:20:56.067Z,16.70
2023-04-29T19:23:24.728Z,16.60
2023-04-29T19:25:52.940Z,16.60
2023-04-29T19:28:23.766Z,16.50
2023-04-29T19:30:52.047Z,16.50
2023-04-29T19:33:20.303Z,16.40
2023-04-29T19:35:48.560Z,16.20
2023-04-29T19:38:16.957Z,16.10
2023-04-29T19:40:45.355Z,16.00
2023-04-29T19:43:14.061Z,16.00
2023-04-29T19:45:43.860Z,15.90
2023-04-29T19:48:12.276Z,15.80
2023-04-29T19:50:41.510Z,15.80
2023-04-29T19:53:09.901Z,15.70
2023-04-29T19:55:39.160Z,15.70
2023-04-29T19:58:07.672Z,15.70
2023-04-29T20:00:36.425Z,15.60
2023-04-29T20:03:06.420Z,15.60
2023-04-29T20:05:34.952Z,15.40
2023-04-29T20:08:03.325Z,15.50
2023-04-29T20:10:31.971Z,15.50
2023-04-29T20:13:01.189Z,15.50
2023-04-29T20:15:29.593Z,15.50
2023-04-29T20:17:58.296Z,15.50
2023-04-29T20:20:28.410Z,15.40
2023-04-29T20:23:00.286Z,15.40
2023-04-29T20:25:28.895Z,15.50
2023-04-29T20:27:57.582Z,15.40
2023-04-29T20:30:26.714Z,15.40
2023-04-29T20:32:55.102Z,15.40
2023-04-29T20:35:23.496Z,15.40
2023-04-29T20:37:53.229Z,15.40
2023-04-29T20:40:21.840Z,15.40
2023-04-29T20:42:50.164Z,15.50
2023-04-29T20:45:18.559Z,15.50
2023-04-29T20:47:46.861Z,15.50
2023-04-29T20:50:15.233Z,15.50
2023-04-29T20:52:43.689Z,15.50
2023-04-29T20:55:13.605Z,15.50
2023-04-29T20:57:41.930Z,15.40
2023-04-29T21:00:11.191Z,15.40
2023-04-29T21:02:40.275Z,15.40
2023-04-29T21:05:10.200Z,15.30
2023-04-29T21:07:38.830Z,15.30
2023-04-29T21:10:07.932Z,15.20
2023-04-29T21:12:37.752Z,15.10
2023-04-29T21:15:06.712Z,15.10
2023-04-29T21:17:35.001Z,15.00
2023-04-29T21:20:03.277Z,14.90
2023-04-29T21:22:31.660Z,14.80
2023-04-29T21:24:59.935Z,14.80
2023-04-29T21:27:28.280Z,14.70
2023-04-29T21:29:58.059Z,14.60
2023-04-29T21:32:26.699Z,14.60
2023-04-29T21:34:55.057Z,14.60
2023-04-29T21:37:23.499Z,14.70
2023-04-29T21:39:52.108Z,14.60
2023-04-29T21:42:23.253Z,14.60
2023-04-29T21:44:51.577Z,14.70
2023-04-29T21:47:21.755Z,14.70
2023-04-29T21:49:50.485Z,14.60
2023-04-29T21:52:19.069Z,14.70
2023-04-29T21:54:47.417Z,14.70
2023-04-29T21:57:15.725Z,14.70
2023-04-29T21:59:43.920Z,14.80
2023-04-29T22:02:22.256Z,14.80
2023-04-29T22:04:52.867Z,14.90
2023-04-29T22:07:23.484Z,14.90
2023-04-29T22:09:51.898Z,15.00
2023-04-29T22:12:21.368Z,15.00
2023-04-29T22:14:49.714Z,15.00
2023-04-29T22:17:17.908Z,15.00
2023-04-29T22:19:46.098Z,15.00
2023-04-29T22:22:15.837Z,14.90
2023-04-29T22:24:44.063Z,14.90
2023-04-29T22:27:12.249Z,14.90
2023-04-29T22:29:40.532Z,14.90
2023-04-29T22:32:08.791Z,14.90
2023-04-29T22:34:37.250Z,14.80
2023-04-29T22:37:05.466Z,14.80
2023-04-29T22:39:35.247Z,14.90
2023-04-29T22:42:04.664Z,14.90
2023-04-29T22:44:32.937Z,14.90
2023-04-29T22:47:01.150Z,14.90
2023-04-29T22:49:29.408Z,14.90
2023-04-29T22:51:57.795Z,14.90
2023-04-29T22:54:26.066Z,14.80
2023-04-29T22:56:55.722Z,14.80
2023-04-29T22:59:24.039Z,14.80
2023-04-29T23:01:52.624Z,14.70
2023-04-29T23:04:22.800Z,14.70
2023-04-29T23:06:51.070Z,14.70
2023-04-29T23:09:19.316Z,14.70
2023-04-29T23:11:47.639Z,14.70
2023-04-29T23:14:17.384Z,14.70
2023-04-29T23:16:45.692Z,14.70
2023-04-29T23:19:16.380Z,14.70
2023-04-29T23:21:44.770Z,14.70
2023-04-29T23:24:13.230Z,14.70
2023-04-29T23:26:41.626Z,14.70
2023-04-29T23:29:13.144Z,14.70
2023-04-29T23:31:42.793Z,14.70
2023-04-29T23:34:11.935Z,14.70
2023-04-29T23:36:40.396Z,14.70
2023-04-29T23:39:09.102Z,14.70
2023-04-29T23:41:37.480Z,14.70
2023-04-29T23:44:05.815Z,14.60
2023-04-29T23:46:34.387Z,14.60
2023-04-29T23:49:04.221Z,14.50
2023-04-29T23:51:33.110Z,14.50
2023-04-29T23:54:01.699Z,14.50
2023-04-29T23:56:31.571Z,14.40
2023-04-29T23:58:59.855Z,14.40
